Time;durP1;ratioP1;P1;durP2;ratioP2;P2;SDS_P1;SDS_P2;PMS_P1;PMS_P2;Temp;Humidity;BMP_temperature;BMP_pressure;BME280_temperature;BME280_humidity;BME280_pressure;Samples;Min_cycle;Max_cycle;Signal;HPM_P1;HPM_P2
2021/07/25 00:02:25;;;;;;;7.22;5.55;;;;;;;24.83;40.02;100958.22;5073163;28;20032;-83
2021/07/25 00:04:51;;;;;;;6.25;4.97;;;;;;;24.76;39.83;100953.44;5073310;28;20025;-87
2021/07/25 00:07:17;;;;;;;6.97;6.07;;;;;;;24.77;40.11;100955.03;5074194;28;20501;-83
2021/07/25 00:09:42;;;;;;;9.15;7.18;;;;;;;24.78;40.02;100953.84;5072666;28;20032;-82
2021/07/25 00:12:10;;;;;;;8.13;6.70;;;;;;;24.76;40.10;100947.06;5074199;28;20033;-82
2021/07/25 00:14:36;;;;;;;22.58;7.53;;;;;;;24.59;40.35;100946.72;5072703;28;20471;-82
2021/07/25 00:17:02;;;;;;;10.13;6.97;;;;;;;24.62;40.55;100948.69;5073328;28;20028;-82
2021/07/25 00:19:27;;;;;;;10.55;6.85;;;;;;;24.49;40.88;100946.78;5072141;28;20033;-83
2021/07/25 00:21:54;;;;;;;8.90;7.05;;;;;;;24.49;40.73;100943.97;5073722;28;20039;-84
2021/07/25 00:24:24;;;;;;;6.55;5.57;;;;;;;24.48;40.37;100951.53;5073927;28;20446;-82
2021/07/25 00:26:50;;;;;;;;;;;;;;;24.40;40.38;100946.38;5073250;28;20082;-82
2021/07/25 00:29:16;;;;;;;9.35;7.05;;;;;;;24.38;39.78;100943.19;5072900;28;19912;-83
2021/07/25 00:31:42;;;;;;;8.55;6.32;;;;;;;24.35;39.65;100945.59;5072894;28;20024;-83
2021/07/25 00:34:08;;;;;;;7.50;6.80;;;;;;;24.30;39.90;100940.38;5072902;28;20051;-84
2021/07/25 00:36:34;;;;;;;9.60;8.57;;;;;;;24.24;40.06;100941.19;5073967;28;20483;-83
2021/07/25 00:39:00;;;;;;;8.50;7.50;;;;;;;24.17;40.30;100944.78;5072461;28;20040;-82
2021/07/25 00:41:26;;;;;;;10.23;8.98;;;;;;;24.15;40.13;100938.81;5072760;28;20025;-84
2021/07/25 00:43:52;;;;;;;11.10;7.47;;;;;;;24.21;40.56;100942.00;5072438;28;20090;-83
2021/07/25 00:46:18;;;;;;;10.13;7.93;;;;;;;24.24;40.47;100932.81;5073732;28;20032;-85
2021/07/25 00:48:45;;;;;;;12.07;7.95;;;;;;;24.16;40.85;100936.81;5071775;28;20039;-83
2021/07/25 00:51:12;;;;;;;10.05;7.97;;;;;;;24.22;40.67;100941.59;5072323;28;20028;-83
2021/07/25 00:53:40;;;;;;;10.98;7.70;;;;;;;24.28;40.75;100940.00;5072063;28;20025;-82
2021/07/25 00:56:08;;;;;;;10.07;8.15;;;;;;;24.24;40.67;100943.97;5072182;28;20040;-83
2021/07/25 00:58:42;;;;;;;8.20;7.38;;;;;;;24.17;40.69;100947.56;5072424;28;20025;-83
2021/07/25 01:01:09;;;;;;;9.52;7.57;;;;;;;24.14;40.63;100944.81;5073575;28;20024;-83
2021/07/25 01:04:02;;;;;;;10.23;7.30;;;;;;;24.11;41.17;100946.41;5072445;28;20027;-83
2021/07/25 01:06:47;;;;;;;11.75;6.88;;;;;;;24.15;40.67;100944.41;5072391;28;20395;-83
2021/07/25 01:09:19;;;;;;;12.20;8.15;;;;;;;24.08;40.81;100949.97;5072379;28;20355;-83
2021/07/25 01:11:57;;;;;;;8.82;7.43;;;;;;;24.13;41.00;100948.78;5072208;28;20028;-82
2021/07/25 01:14:32;;;;;;;10.45;7.78;;;;;;;24.15;40.98;100958.34;5072125;28;20029;-82
2021/07/25 01:17:22;;;;;;;9.68;8.13;;;;;;;24.10;40.73;100950.38;5072260;28;20386;-82
2021/07/25 01:19:49;;;;;;;10.00;7.93;;;;;;;24.11;40.56;100951.16;5071939;28;20039;-84
2021/07/25 01:22:18;;;;;;;9.57;7.93;;;;;;;24.06;40.86;100964.34;5073507;28;20479;-84
2021/07/25 01:24:44;;;;;;;9.95;8.65;;;;;;;24.06;40.29;100960.75;5073444;28;20036;-83
2021/07/25 01:27:19;;;;;;;10.73;8.02;;;;;;;23.97;41.12;100958.38;5072872;28;20024;-83
2021/07/25 01:29:46;;;;;;;9.85;8.60;;;;;;;24.03;40.75;100962.38;5073303;28;20060;-84
2021/07/25 01:32:14;;;;;;;9.75;7.93;;;;;;;23.99;40.97;100961.56;5071799;28;20107;-84
2021/07/25 01:34:41;;;;;;;11.55;9.43;;;;;;;24.07;40.86;100963.16;5073074;28;20094;-83
2021/07/25 01:37:07;;;;;;;11.40;9.48;;;;;;;24.05;41.01;100964.75;5071648;28;20060;-83
2021/07/25 01:39:33;;;;;;;8.85;7.95;;;;;;;24.02;41.14;100965.53;5071540;28;20686;-85
2021/07/25 01:41:58;;;;;;;10.27;8.93;;;;;;;24.01;41.04;100961.94;5072043;28;20025;-83
2021/07/25 01:44:24;;;;;;;12.38;8.50;;;;;;;23.98;40.58;100962.75;5071584;28;20028;-83
2021/07/25 01:46:50;;;;;;;12.90;8.73;;;;;;;23.94;40.93;100961.94;5073565;28;20031;-86
2021/07/25 01:49:15;;;;;;;16.42;9.00;;;;;;;23.86;40.91;100971.50;5073491;28;20472;-84
2021/07/25 01:51:41;;;;;;;14.25;9.77;;;;;;;23.86;40.72;100967.94;5071962;28;20028;-83
2021/07/25 01:54:07;;;;;;;11.13;9.75;;;;;;;23.76;41.05;100970.31;5072982;28;20498;-84
2021/07/25 01:56:32;;;;;;;12.30;11.00;;;;;;;23.77;41.04;100965.53;5072163;28;20028;-83
2021/07/25 01:58:59;;;;;;;14.07;10.57;;;;;;;23.73;41.05;100959.97;5072499;28;20060;-84
2021/07/25 02:01:25;;;;;;;15.23;10.77;;;;;;;23.72;41.15;100961.13;5075756;28;20024;-84
2021/07/25 02:03:50;;;;;;;11.93;10.73;;;;;;;23.71;41.33;100962.34;5075344;28;20092;-83
2021/07/25 02:06:17;;;;;;;11.57;10.43;;;;;;;23.65;41.40;100955.56;5075565;28;20510;-84
2021/07/25 02:08:43;;;;;;;15.07;11.52;;;;;;;23.61;41.24;100954.78;5076829;28;20382;-83
2021/07/25 02:11:09;;;;;;;12.48;11.20;;;;;;;23.65;41.06;100951.97;5075383;28;20098;-83
2021/07/25 02:13:35;;;;;;;19.15;12.98;;;;;;;23.57;41.31;100956.72;5075518;28;20039;-86
2021/07/25 02:16:00;;;;;;;13.63;11.18;;;;;;;23.58;41.62;100952.75;5075501;28;20036;-82
2021/07/25 02:18:27;;;;;;;15.85;11.35;;;;;;;23.59;41.45;100959.94;5075263;28;20123;-83
2021/07/25 02:20:53;;;;;;;17.45;11.95;;;;;;;23.61;41.40;100956.75;5075419;28;20033;-87
2021/07/25 02:23:19;;;;;;;13.02;11.60;;;;;;;23.60;41.37;100961.53;5075404;28;20127;-86
2021/07/25 02:25:45;;;;;;;14.23;11.85;;;;;;;23.50;41.04;100963.09;5075452;28;20028;-83
2021/07/25 02:28:11;;;;;;;12.80;11.50;;;;;;;23.47;41.43;100971.44;5075027;28;20029;-81
2021/07/25 02:30:37;;;;;;;12.50;10.82;;;;;;;23.44;41.51;100972.25;5076352;28;20155;-82
2021/07/25 02:33:04;;;;;;;13.90;10.90;;;;;;;23.42;41.41;100966.25;5075029;28;20391;-84
2021/07/25 02:35:30;;;;;;;13.18;10.23;;;;;;;23.45;41.48;100976.63;5350246;22;20044;-83
2021/07/25 02:37:56;;;;;;;12.50;10.73;;;;;;;23.45;41.55;100968.25;5053827;28;20505;-83
2021/07/25 02:40:23;;;;;;;13.27;11.27;;;;;;;23.37;41.90;100972.22;5054927;28;20033;-82
2021/07/25 02:42:48;;;;;;;16.65;11.45;;;;;;;23.39;41.90;100972.63;5054338;28;20031;-82
2021/07/25 02:45:14;;;;;;;11.93;10.73;;;;;;;23.44;41.54;100969.47;5055639;28;20107;-82
2021/07/25 02:47:40;;;;;;;12.80;11.48;;;;;;;23.40;42.02;100972.22;5054424;28;20061;-83
2021/07/25 02:50:06;;;;;;;14.80;11.38;;;;;;;23.41;41.84;100965.44;5054498;28;20452;-82
2021/07/25 02:52:31;;;;;;;11.52;10.32;;;;;;;23.36;41.87;100973.44;5055591;28;20033;-82
2021/07/25 02:54:57;;;;;;;23.77;11.35;;;;;;;23.34;41.99;100975.78;5055364;28;20105;-82
2021/07/25 02:57:23;;;;;;;11.30;10.10;;;;;;;23.40;42.12;100974.22;5054182;28;20027;-82
2021/07/25 02:59:48;;;;;;;15.85;10.38;;;;;;;23.45;42.05;100968.25;5054209;28;20557;-83
2021/07/25 03:02:14;;;;;;;11.38;9.85;;;;;;;23.48;41.93;100970.25;5055411;28;20394;-82
2021/07/25 03:04:41;;;;;;;11.70;9.82;;;;;;;23.48;41.86;100968.25;5053746;28;20052;-83
2021/07/25 03:07:07;;;;;;;14.95;11.07;;;;;;;23.51;41.82;100970.28;5054146;28;20482;-83
2021/07/25 03:09:33;;;;;;;13.60;11.07;;;;;;;23.57;41.91;100967.06;5053883;28;20029;-82
2021/07/25 03:11:59;;;;;;;12.38;10.70;;;;;;;23.58;41.79;100977.84;5052749;28;20445;-82
2021/07/25 03:14:24;;;;;;;11.90;10.10;;;;;;;23.56;41.78;100971.84;5055210;28;20025;-82
2021/07/25 03:16:50;;;;;;;16.02;10.88;;;;;;;23.58;41.89;100971.44;5053679;28;20082;-82
2021/07/25 03:19:15;;;;;;;14.00;10.70;;;;;;;23.53;41.60;100970.66;5055170;28;20029;-82
2021/07/25 03:21:41;;;;;;;14.07;10.90;;;;;;;23.55;41.84;100967.47;5053905;28;20108;-83
2021/07/25 03:24:07;;;;;;;11.85;10.35;;;;;;;23.53;42.10;100969.88;5053725;28;20021;-83
2021/07/25 03:26:33;;;;;;;14.65;10.10;;;;;;;23.56;41.74;100971.06;5053712;28;20029;-84
2021/07/25 03:28:58;;;;;;;16.08;10.95;;;;;;;23.56;41.81;100968.28;5053644;28;20027;-84
2021/07/25 03:31:24;;;;;;;13.10;11.07;;;;;;;23.45;41.76;100971.84;5053505;28;20044;-84
2021/07/25 03:33:50;;;;;;;12.43;10.88;;;;;;;23.44;41.97;100969.47;5053459;28;20052;-83
2021/07/25 03:36:15;;;;;;;12.40;10.73;;;;;;;23.39;41.77;100969.84;5054445;28;20041;-82
2021/07/25 03:38:41;;;;;;;16.20;10.43;;;;;;;23.38;41.97;100962.66;5054383;28;20040;-83
2021/07/25 03:41:07;;;;;;;12.35;11.02;;;;;;;23.42;41.58;100964.25;5054650;28;20029;-83
2021/07/25 03:43:32;;;;;;;14.23;10.68;;;;;;;23.43;41.83;100973.44;5054662;28;20021;-83
2021/07/25 03:46:00;;;;;;;13.32;11.05;;;;;;;23.38;41.81;100966.25;5054437;28;20021;-83
2021/07/25 03:48:27;;;;;;;14.35;11.38;;;;;;;23.27;41.97;100971.00;5052407;28;20123;-82
2021/07/25 03:50:53;;;;;;;11.55;10.35;;;;;;;23.37;41.83;100972.22;5052809;28;20047;-82
2021/07/25 03:53:19;;;;;;;13.00;10.30;;;;;;;23.43;41.75;100967.88;5053084;28;20048;-83
2021/07/25 03:55:46;;;;;;;11.88;9.82;;;;;;;23.43;41.95;100965.88;5053108;28;20021;-83
2021/07/25 03:58:12;;;;;;;11.15;10.05;;;;;;;23.48;41.71;100971.03;5054216;28;20044;-82
2021/07/25 04:00:38;;;;;;;11.95;9.43;;;;;;;23.55;41.56;100970.25;5053113;28;20025;-83
2021/07/25 04:03:04;;;;;;;10.80;9.70;;;;;;;23.52;41.61;100971.06;5052985;28;20450;-83
2021/07/25 04:05:30;;;;;;;15.93;10.43;;;;;;;23.50;41.63;100970.63;5052909;28;20032;-82
2021/07/25 04:07:56;;;;;;;11.55;9.55;;;;;;;23.51;41.42;100975.06;5052847;28;20029;-83
2021/07/25 04:10:22;;;;;;;10.98;9.65;;;;;;;23.49;41.67;100969.06;5052792;28;20139;-84
2021/07/25 04:12:48;;;;;;;12.45;10.30;;;;;;;23.45;41.79;100965.47;5052915;28;20497;-82
2021/07/25 04:15:14;;;;;;;14.05;10.75;;;;;;;23.46;41.51;100973.44;5052729;28;20521;-83
2021/07/25 04:17:40;;;;;;;14.30;11.02;;;;;;;23.43;41.69;100979.03;5047410;28;20021;-82
2021/07/25 04:20:06;;;;;;;12.57;9.43;;;;;;;23.46;41.47;100973.44;5051334;28;20582;-83
2021/07/25 04:22:37;;;;;;;12.82;10.95;;;;;;;23.40;41.54;100980.59;5052141;28;20398;-83
2021/07/25 04:25:04;;;;;;;11.73;9.95;;;;;;;23.41;41.71;100975.81;5052498;28;20029;-83
2021/07/25 04:27:30;;;;;;;12.35;11.02;;;;;;;23.40;41.61;100968.63;5053696;28;20543;-83
2021/07/25 04:29:57;;;;;;;13.30;10.32;;;;;;;23.26;41.68;100972.97;5053667;28;20382;-83
2021/07/25 04:32:24;;;;;;;11.40;9.38;;;;;;;23.30;41.49;100975.00;5052516;28;20064;-82
2021/07/25 04:34:51;;;;;;;11.07;9.27;;;;;;;23.17;41.98;100975.34;5052190;28;20029;-82
2021/07/25 04:37:25;;;;;;;14.88;10.40;;;;;;;23.16;41.84;100978.53;5052289;28;20102;-82
2021/07/25 04:39:51;;;;;;;13.50;10.30;;;;;;;23.15;41.85;100979.72;5052124;28;20124;-83
2021/07/25 04:42:20;;;;;;;15.98;10.98;;;;;;;23.16;41.57;100972.97;5052501;28;20541;-82
2021/07/25 04:45:06;;;;;;;10.65;9.55;;;;;;;23.18;41.58;100976.16;5053431;28;20054;-83
2021/07/25 04:47:40;;;;;;;14.25;9.27;;;;;;;23.16;41.79;100970.16;5052164;28;20039;-82
2021/07/25 04:50:11;;;;;;;11.80;10.00;;;;;;;23.15;41.70;100974.94;5053309;28;20136;-83
2021/07/25 04:52:41;;;;;;;11.93;10.20;;;;;;;23.13;41.92;100977.34;5053229;28;20031;-83
2021/07/25 04:55:12;;;;;;;14.50;9.77;;;;;;;23.07;41.88;100978.91;5052006;28;20118;-82
2021/07/25 04:57:41;;;;;;;15.30;9.80;;;;;;;23.06;41.94;100976.53;5053109;28;20033;-81
2021/07/25 05:00:16;;;;;;;11.87;9.97;;;;;;;23.08;41.61;100980.50;5051802;28;20418;-82
2021/07/25 05:02:43;;;;;;;13.45;10.75;;;;;;;23.03;41.90;100975.28;5052678;28;20040;-82
2021/07/25 05:05:10;;;;;;;13.18;10.95;;;;;;;22.89;42.22;100978.00;5051890;28;20060;-83
2021/07/25 05:07:40;;;;;;;12.38;10.18;;;;;;;23.00;42.00;100976.09;5052896;28;20407;-82
2021/07/25 05:10:06;;;;;;;;;;;;;;;22.88;42.19;100966.06;5052093;28;20131;-82
2021/07/25 05:12:45;;;;;;;11.60;10.32;;;;;;;23.00;41.81;100966.94;5051634;28;19958;-83
2021/07/25 05:15:16;;;;;;;17.63;11.82;;;;;;;23.02;42.10;100964.53;5051771;28;20079;-82
2021/07/25 05:17:49;;;;;;;15.18;10.25;;;;;;;23.07;41.92;100967.75;5051752;28;20024;-82
2021/07/25 05:20:15;;;;;;;12.68;11.15;;;;;;;23.10;42.02;100966.16;5051554;28;20520;-82
2021/07/25 05:22:49;;;;;;;12.95;10.77;;;;;;;23.11;42.13;100965.75;5051719;28;20033;-83
2021/07/25 05:25:17;;;;;;;14.23;10.15;;;;;;;23.18;42.09;100971.38;5052708;28;20036;-82
2021/07/25 05:27:48;;;;;;;12.93;10.93;;;;;;;23.33;41.73;100971.41;5051545;28;20097;-83
2021/07/25 05:30:20;;;;;;;14.55;10.43;;;;;;;23.35;41.93;100971.81;5052569;28;20040;-82
2021/07/25 05:32:46;;;;;;;11.70;10.48;;;;;;;23.35;41.81;100972.63;5050955;28;20032;-83
2021/07/25 05:35:12;;;;;;;12.05;10.15;;;;;;;23.39;41.77;100972.63;5054558;28;20124;-84
2021/07/25 05:37:38;;;;;;;15.13;10.27;;;;;;;23.43;42.13;100976.22;5056376;28;20037;-82
2021/07/25 05:40:05;;;;;;;13.60;10.30;;;;;;;23.42;42.13;100975.41;5056412;28;20040;-83
2021/07/25 05:42:31;;;;;;;11.85;10.25;;;;;;;23.49;41.91;100969.84;5055133;28;20133;-84
2021/07/25 05:44:56;;;;;;;13.48;9.75;;;;;;;23.62;41.92;100970.31;5054458;28;20518;-83
2021/07/25 05:47:22;;;;;;;11.00;9.90;;;;;;;23.68;41.63;100970.72;5054633;28;20112;-83
2021/07/25 05:49:47;;;;;;;14.55;10.68;;;;;;;23.67;41.46;100971.91;5056650;28;20021;-83
2021/07/25 05:52:13;;;;;;;12.60;10.52;;;;;;;23.75;41.55;100979.09;5054939;28;20120;-84
2021/07/25 05:54:39;;;;;;;18.15;11.10;;;;;;;23.84;41.63;100976.69;5055121;28;20121;-84
2021/07/25 05:57:05;;;;;;;15.15;10.35;;;;;;;23.85;41.80;100977.50;5053603;28;20029;-85
2021/07/25 05:59:30;;;;;;;12.25;10.43;;;;;;;23.90;41.72;100977.13;5054885;28;20581;-85
2021/07/25 06:01:56;;;;;;;16.45;10.80;;;;;;;23.90;41.57;100980.69;5054991;28;20170;-83
2021/07/25 06:04:21;;;;;;;13.90;10.70;;;;;;;23.92;41.83;100981.09;5054944;28;20091;-84
2021/07/25 06:06:47;;;;;;;20.65;12.60;;;;;;;23.88;42.43;100982.28;5054791;28;20032;-84
2021/07/25 06:09:12;;;;;;;14.77;11.38;;;;;;;23.84;42.69;100978.69;5054870;28;20033;-85
2021/07/25 06:11:38;;;;;;;18.58;10.45;;;;;;;23.99;42.17;100986.69;5054733;28;20029;-83
2021/07/25 06:14:04;;;;;;;13.30;9.75;;;;;;;24.06;42.25;100980.31;5059720;28;20028;-85
2021/07/25 06:16:30;;;;;;;13.15;9.80;;;;;;;24.17;42.60;100980.28;5068709;28;20059;-84
2021/07/25 06:18:55;;;;;;;11.55;8.48;;;;;;;24.27;42.30;100976.69;5067889;28;20116;-84
2021/07/25 06:21:21;;;;;;;10.95;9.02;;;;;;;24.37;42.04;100986.28;5062433;28;20466;-85
2021/07/25 06:23:48;;;;;;;9.93;8.93;;;;;;;24.50;42.19;100985.47;5056430;28;20119;-83
2021/07/25 06:26:14;;;;;;;12.57;9.57;;;;;;;24.56;42.38;100983.03;5053802;28;20082;-83
2021/07/25 06:28:39;;;;;;;13.77;10.05;;;;;;;24.68;42.10;100984.63;5054628;28;20037;-85
2021/07/25 06:31:05;;;;;;;12.30;10.38;;;;;;;24.76;42.03;100973.00;5054894;28;20036;-85
2021/07/25 06:33:30;;;;;;;14.55;10.00;;;;;;;24.83;42.08;100975.78;5054817;28;20025;-83
2021/07/25 06:35:56;;;;;;;13.98;10.30;;;;;;;24.82;42.28;100974.19;5054248;28;20045;-84
2021/07/25 06:38:23;;;;;;;13.50;10.68;;;;;;;24.96;41.74;100983.72;5055727;28;20041;-84
2021/07/25 06:40:51;;;;;;;13.20;10.52;;;;;;;24.94;42.00;100977.72;5055630;28;20033;-83
2021/07/25 06:43:19;;;;;;;12.25;10.50;;;;;;;25.01;42.11;100978.50;5055806;28;20075;-83
2021/07/25 06:45:45;;;;;;;14.45;9.55;;;;;;;25.12;42.11;100987.69;5055454;28;20033;-83
2021/07/25 06:48:20;;;;;;;132.13;21.05;;;;;;;25.26;41.79;100986.81;5055704;28;20025;-83
2021/07/25 06:50:51;;;;;;;10.05;9.05;;;;;;;25.38;41.92;100991.91;5054371;28;20025;-87
2021/07/25 06:53:18;;;;;;;11.68;9.07;;;;;;;25.50;41.49;100985.06;5054289;28;20116;-83
2021/07/25 06:55:44;;;;;;;11.57;8.60;;;;;;;25.58;41.72;100983.03;5055576;28;20037;-81
2021/07/25 06:58:10;;;;;;;10.50;9.43;;;;;;;25.55;41.77;100979.06;5055359;28;20029;-85
2021/07/25 07:00:36;;;;;;;13.40;10.73;;;;;;;25.66;41.88;100979.75;5054250;28;20035;-84
2021/07/25 07:03:01;;;;;;;10.55;9.43;;;;;;;25.80;41.52;100980.91;5053970;28;20039;-76
2021/07/25 07:05:29;;;;;;;13.02;10.30;;;;;;;25.94;41.34;100978.78;5054811;28;20025;-74
2021/07/25 07:07:58;;;;;;;11.80;10.13;;;;;;;25.96;41.46;100981.97;5054763;28;20036;-77
2021/07/25 07:10:26;;;;;;;14.45;9.20;;;;;;;25.97;41.38;100982.75;5054717;28;20106;-73
2021/07/25 07:12:53;;;;;;;13.10;9.50;;;;;;;26.00;41.76;100979.94;5054645;28;20390;-73
2021/07/25 07:15:21;;;;;;;12.20;8.98;;;;;;;26.18;41.24;100987.38;5054619;28;20104;-74
2021/07/25 07:17:55;;;;;;;12.13;9.60;;;;;;;26.22;41.65;100985.34;5054328;28;20112;-73
2021/07/25 07:20:21;;;;;;;10.13;8.93;;;;;;;26.35;41.30;100978.00;5054462;28;20025;-74
2021/07/25 07:23:03;;;;;;;10.20;8.60;;;;;;;26.49;41.69;100982.72;5054487;28;20063;-74
2021/07/25 07:25:32;;;;;;;11.02;8.48;;;;;;;26.75;41.24;100978.41;5054492;28;20055;-75
2021/07/25 07:27:58;;;;;;;11.90;8.23;;;;;;;26.82;41.25;100972.72;5054289;28;20486;-74
2021/07/25 07:30:24;;;;;;;9.95;8.75;;;;;;;27.03;40.79;100980.88;5053242;28;20040;-75
2021/07/25 07:32:49;;;;;;;9.88;8.65;;;;;;;27.24;40.64;100977.03;5055153;28;20395;-77
2021/07/25 07:35:15;;;;;;;14.27;8.23;;;;;;;27.28;41.03;100972.16;5054436;28;20025;-82
2021/07/25 07:37:41;;;;;;;18.58;8.68;;;;;;;27.42;41.07;100973.94;5054146;28;20045;-75
2021/07/25 07:40:07;;;;;;;9.43;6.78;;;;;;;27.60;40.85;100973.72;5054180;28;20033;-75
2021/07/25 07:42:33;;;;;;;10.18;7.20;;;;;;;27.76;40.88;100981.50;5054198;28;20029;-74
2021/07/25 07:44:59;;;;;;;9.15;7.45;;;;;;;27.86;40.63;100980.53;5054001;28;20430;-75
2021/07/25 07:47:25;;;;;;;9.38;6.95;;;;;;;27.99;40.48;100978.72;5053988;28;20533;-74
2021/07/25 07:49:51;;;;;;;12.13;7.03;;;;;;;28.08;40.20;100986.59;5053984;28;20035;-74
2021/07/25 07:52:16;;;;;;;8.63;7.72;;;;;;;28.20;40.08;100989.59;5052551;28;20178;-74
2021/07/25 07:54:42;;;;;;;33.33;8.00;;;;;;;28.35;39.79;100989.38;5053864;28;20096;-73
2021/07/25 07:57:08;;;;;;;10.82;7.43;;;;;;;28.36;39.93;100990.97;5053286;28;20025;-74
2021/07/25 07:59:33;;;;;;;8.98;7.15;;;;;;;28.50;39.46;100995.53;5053650;28;20072;-73
2021/07/25 08:01:59;;;;;;;8.02;6.18;;;;;;;28.58;39.59;100989.34;5053574;28;20021;-73
2021/07/25 08:04:25;;;;;;;9.63;7.28;;;;;;;28.75;39.05;100988.19;5053654;28;20028;-75
2021/07/25 08:06:51;;;;;;;9.23;6.97;;;;;;;28.75;39.06;100984.56;5053420;28;20032;-75
2021/07/25 08:09:16;;;;;;;13.90;7.65;;;;;;;28.93;39.02;100985.03;5052466;28;20025;-89
2021/07/25 08:11:48;;;;;;;12.52;7.18;;;;;;;29.13;38.20;100979.41;5052685;28;20029;-74
2021/07/25 08:14:15;;;;;;;9.27;7.57;;;;;;;29.19;38.51;100988.13;5052145;28;20033;-75
2021/07/25 08:16:42;;;;;;;19.60;9.00;;;;;;;29.19;38.28;100977.66;5051124;28;20017;-75
2021/07/25 08:19:08;;;;;;;9.85;6.88;;;;;;;29.32;38.06;100976.97;5051406;28;20080;-74
2021/07/25 08:21:34;;;;;;;11.38;7.10;;;;;;;29.45;37.62;100975.84;5051812;28;20501;-75
2021/07/25 08:24:00;;;;;;;9.18;8.02;;;;;;;29.34;37.80;100982.97;5051570;28;20033;-75
2021/07/25 08:26:27;;;;;;;9.93;7.80;;;;;;;29.39;37.82;100966.34;5051975;28;20017;-76
2021/07/25 08:28:52;;;;;;;13.02;7.25;;;;;;;29.45;37.99;100973.03;5051592;28;20090;-75
2021/07/25 08:31:18;;;;;;;10.10;7.30;;;;;;;29.58;37.38;100972.41;5051576;28;20495;-87
2021/07/25 08:33:44;;;;;;;10.23;7.00;;;;;;;29.58;37.89;100978.03;5051730;28;20025;-75
2021/07/25 08:36:09;;;;;;;8.48;6.05;;;;;;;29.68;37.59;100968.53;5053054;28;20051;-75
2021/07/25 08:38:35;;;;;;;7.95;6.78;;;;;;;29.67;37.68;100970.53;5051914;28;20052;-74
2021/07/25 08:41:16;;;;;;;8.68;6.35;;;;;;;29.89;37.41;100967.22;5051503;28;20036;-86
2021/07/25 08:43:44;;;;;;;9.35;7.70;;;;;;;29.92;37.48;100969.91;5053239;28;20025;-76
2021/07/25 08:46:20;;;;;;;9.18;6.90;;;;;;;29.89;37.62;100970.03;5053060;28;20514;-76
2021/07/25 08:48:52;;;;;;;8.63;6.70;;;;;;;30.14;37.08;100966.59;5053182;28;20025;-75
2021/07/25 08:51:25;;;;;;;12.50;6.20;;;;;;;30.19;37.18;100968.88;5053011;28;20475;-76
2021/07/25 08:54:05;;;;;;;8.65;6.78;;;;;;;30.28;37.00;100961.38;5051584;28;20020;-75
2021/07/25 08:56:34;;;;;;;13.43;6.68;;;;;;;30.23;36.91;100956.28;5052955;28;20028;-76
2021/07/25 08:59:02;;;;;;;11.40;6.55;;;;;;;30.37;36.99;100955.09;5051682;28;20041;-90
2021/07/25 09:01:32;;;;;;;7.15;6.25;;;;;;;30.33;36.63;100962.88;5053036;28;20360;-77
2021/07/25 09:03:58;;;;;;;9.20;6.15;;;;;;;30.38;36.79;100962.34;5053101;28;20045;-76
2021/07/25 09:06:29;;;;;;;10.85;7.18;;;;;;;30.37;36.55;100964.34;5051507;28;20114;-76
2021/07/25 09:08:55;;;;;;;9.05;7.00;;;;;;;30.51;36.38;100962.38;5051827;28;20387;-76
2021/07/25 09:11:20;;;;;;;8.25;7.00;;;;;;;30.55;36.38;100952.59;5053137;28;20017;-76
2021/07/25 09:13:46;;;;;;;9.00;6.75;;;;;;;30.63;36.44;100965.25;5052722;28;20078;-76
2021/07/25 09:16:12;;;;;;;8.88;6.68;;;;;;;30.69;36.52;100964.75;5052673;28;20082;-76
2021/07/25 09:18:37;;;;;;;8.93;6.78;;;;;;;30.82;35.89;100965.53;5051314;28;20036;-76
2021/07/25 09:21:03;;;;;;;8.55;6.45;;;;;;;30.75;36.45;100960.91;5052580;28;20176;-76
2021/07/25 09:23:28;;;;;;;11.68;6.47;;;;;;;30.80;36.53;100957.53;5052629;28;20052;-75
2021/07/25 09:25:56;;;;;;;8.57;7.05;;;;;;;30.53;36.67;100963.53;5053006;28;20442;-90
2021/07/25 09:28:32;;;;;;;12.82;7.07;;;;;;;30.57;36.87;100966.25;5052850;28;20036;-90
2021/07/25 09:31:11;;;;;;;8.65;6.20;;;;;;;30.77;36.50;100969.72;5052751;28;20033;-88
2021/07/25 09:33:37;;;;;;;6.85;5.70;;;;;;;30.71;36.34;100959.44;5052709;28;20021;-89
2021/07/25 09:36:08;;;;;;;31.50;9.13;;;;;;;30.80;36.10;100968.03;5052403;28;20392;-90
2021/07/25 09:38:34;;;;;;;180.52;24.02;;;;;;;30.76;36.25;100970.16;5052395;28;20037;-76
2021/07/25 09:41:01;;;;;;;13.98;7.35;;;;;;;30.54;36.86;100973.56;5050971;28;20075;-75
2021/07/25 09:43:27;;;;;;;16.48;7.70;;;;;;;30.39;37.27;100967.53;5052350;28;20021;-75
2021/07/25 09:45:54;;;;;;;8.60;6.63;;;;;;;30.57;36.95;100966.25;5052039;28;20029;-75
2021/07/25 09:48:24;;;;;;;13.90;7.70;;;;;;;30.71;36.71;100960.22;5052455;28;20029;-75
2021/07/25 09:50:51;;;;;;;13.80;7.53;;;;;;;30.86;36.15;100963.44;5051049;28;20025;-75
2021/07/25 09:53:17;;;;;;;8.82;6.88;;;;;;;30.82;36.43;100959.91;5050892;28;20025;-75
2021/07/25 09:55:43;;;;;;;10.10;6.32;;;;;;;30.96;35.88;100962.31;5052280;28;20025;-74
2021/07/25 09:58:09;;;;;;;18.88;8.30;;;;;;;30.99;36.14;100963.47;5052340;28;20033;-89
2021/07/25 10:00:42;;;;;;;8.43;6.25;;;;;;;30.88;36.33;100953.28;5052299;28;20530;-75
2021/07/25 10:03:25;;;;;;;12.45;7.50;;;;;;;30.65;36.96;100962.75;5052274;28;20025;-75
2021/07/25 10:05:52;;;;;;;11.23;6.43;;;;;;;30.86;36.51;100958.56;5052181;28;20056;-75
2021/07/25 10:08:22;;;;;;;11.05;7.20;;;;;;;31.01;36.57;100956.13;5052270;28;20021;-89
2021/07/25 10:10:50;;;;;;;11.35;7.32;;;;;;;30.91;36.91;100958.03;5052497;28;20036;-75
2021/07/25 10:13:18;;;;;;;11.52;7.65;;;;;;;30.99;36.74;100963.47;5052027;28;20032;-75
2021/07/25 10:15:54;;;;;;;9.67;7.30;;;;;;;31.01;36.82;100966.63;5050921;28;20025;-75
2021/07/25 10:18:21;;;;;;;9.18;8.02;;;;;;;31.04;37.02;100962.88;5052036;28;20032;-74
2021/07/25 10:20:49;;;;;;;11.57;7.60;;;;;;;31.09;36.68;100973.63;5053665;28;20122;-76
2021/07/25 10:23:17;;;;;;;10.30;7.45;;;;;;;31.09;36.90;100973.63;5054244;28;20025;-76
2021/07/25 10:25:50;;;;;;;8.15;7.35;;;;;;;31.11;36.22;100983.22;5054819;28;20025;-76
2021/07/25 10:28:18;;;;;;;27.95;9.75;;;;;;;31.27;36.59;100978.75;5055806;28;20433;-82
2021/07/25 10:30:47;;;;;;;8.75;6.82;;;;;;;31.36;36.23;100979.69;5055717;28;20035;-76
2021/07/25 10:33:15;;;;;;;10.27;8.73;;;;;;;31.61;35.76;100980.94;5055688;28;20027;-76
2021/07/25 10:35:42;;;;;;;10.07;8.63;;;;;;;31.51;35.60;100982.81;5055550;28;20029;-75
2021/07/25 10:38:08;;;;;;;14.93;7.97;;;;;;;31.46;36.20;100981.38;5054424;28;20029;-80
2021/07/25 10:40:35;;;;;;;9.90;8.25;;;;;;;31.51;35.88;100979.22;5055596;28;20036;-76
2021/07/25 10:43:01;;;;;;;12.35;8.77;;;;;;;31.66;35.45;100977.50;5054676;28;20029;-76
2021/07/25 10:45:27;;;;;;;9.55;8.60;;;;;;;31.66;35.65;100985.97;5055450;28;20532;-88
2021/07/25 10:48:15;;;;;;;16.52;8.52;;;;;;;31.59;35.86;100972.91;5055349;28;20032;-76
2021/07/25 10:50:41;;;;;;;47.38;11.10;;;;;;;31.69;35.77;100982.28;5055431;28;20100;-75
2021/07/25 10:53:07;;;;;;;12.02;7.40;;;;;;;31.79;35.58;100972.69;5053776;28;20037;-74
2021/07/25 10:55:39;;;;;;;11.13;7.93;;;;;;;31.92;35.15;100981.94;5055084;28;20033;-75
2021/07/25 10:58:11;;;;;;;10.73;7.75;;;;;;;31.92;35.24;100976.28;5053700;28;20061;-75
2021/07/25 11:00:43;;;;;;;34.85;9.75;;;;;;;31.90;35.27;100980.81;5053637;28;20029;-87
2021/07/25 11:03:10;;;;;;;11.27;7.78;;;;;;;32.07;35.29;100975.81;5053622;28;20494;-75
2021/07/25 11:05:59;;;;;;;10.93;6.93;;;;;;;32.09;35.05;100978.94;5054821;28;20032;-75
2021/07/25 11:08:34;;;;;;;10.02;6.75;;;;;;;32.13;34.47;100974.78;5048196;28;20498;-75
2021/07/25 11:11:01;;;;;;;8.85;6.70;;;;;;;32.28;34.45;100975.06;5053483;28;20122;-75
2021/07/25 11:13:40;;;;;;;10.50;7.70;;;;;;;32.10;34.11;100975.66;5054805;28;20021;-74
2021/07/25 11:16:29;;;;;;;10.93;7.28;;;;;;;32.08;33.91;100975.34;5054718;28;20079;-76
2021/07/25 11:18:59;;;;;;;15.60;8.43;;;;;;;31.99;34.05;100972.44;5054652;28;20021;-75
2021/07/25 11:21:36;;;;;;;8.95;7.13;;;;;;;31.80;34.02;100971.44;5053255;28;20064;-75